sensor_id;sensor_type;location;lat;lon;timestamp;temperature;humidity
23719;DHT22;43322;52.230;5.702;2023-10-13T00:01:03;17.00;99.90
23719;DHT22;43322;52.230;5.702;2023-10-13T00:03:32;17.00;99.90
23719;DHT22;43322;52.230;5.702;2023-10-13T00:05:59;17.00;99.90
23719;DHT22;43322;52.230;5.702;2023-10-13T00:08:28;17.00;99.90
23719;DHT22;43322;52.230;5.702;2023-10-13T00:10:55;17.00;99.90
23719;DHT22;43322;52.230;5.702;2023-10-13T00:13:26;17.00;99.90
23719;DHT22;43322;52.230;5.702;2023-10-13T00:15:53;16.90;99.90
23719;DHT22;43322;52.230;5.702;2023-10-13T00:18:26;16.90;99.90
23719;DHT22;43322;52.230;5.702;2023-10-13T00:20:58;16.80;99.90
23719;DHT22;43322;52.230;5.702;2023-10-13T00:23:25;16.80;99.90
23719;DHT22;43322;52.230;5.702;2023-10-13T00:25:53;16.90;99.90
23719;DHT22;43322;52.230;5.702;2023-10-13T00:28:28;16.90;99.90
23719;DHT22;43322;52.230;5.702;2023-10-13T00:31:08;16.90;99.90
23719;DHT22;43322;52.230;5.702;2023-10-13T00:33:39;16.90;99.90
23719;DHT22;43322;52.230;5.702;2023-10-13T00:36:07;17.00;99.90
23719;DHT22;43322;52.230;5.702;2023-10-13T00:38:42;16.90;99.90
23719;DHT22;43322;52.230;5.702;2023-10-13T00:41:13;16.90;99.90
23719;DHT22;43322;52.230;5.702;2023-10-13T00:43:46;16.90;99.90
23719;DHT22;43322;52.230;5.702;2023-10-13T00:46:31;16.90;99.90
23719;DHT22;43322;52.230;5.702;2023-10-13T00:49:00;16.90;99.90
23719;DHT22;43322;52.230;5.702;2023-10-13T00:51:27;16.80;99.90
23719;DHT22;43322;52.230;5.702;2023-10-13T00:54:02;16.80;99.90
23719;DHT22;43322;52.230;5.702;2023-10-13T00:56:33;16.90;99.90
23719;DHT22;43322;52.230;5.702;2023-10-13T00:59:06;16.80;99.90
23719;DHT22;43322;52.230;5.702;2023-10-13T01:01:35;17.00;99.90
23719;DHT22;43322;52.230;5.702;2023-10-13T01:04:04;16.90;99.90
23719;DHT22;43322;52.230;5.702;2023-10-13T01:06:34;16.90;99.90
23719;DHT22;43322;52.230;5.702;2023-10-13T01:09:04;16.90;99.90
23719;DHT22;43322;52.230;5.702;2023-10-13T01:11:37;16.90;99.90
23719;DHT22;43322;52.230;5.702;2023-10-13T01:14:04;16.90;99.90
23719;DHT22;43322;52.230;5.702;2023-10-13T01:16:31;16.90;99.90
23719;DHT22;43322;52.230;5.702;2023-10-13T01:18:57;16.90;99.90
23719;DHT22;43322;52.230;5.702;2023-10-13T01:21:26;16.90;99.90
23719;DHT22;43322;52.230;5.702;2023-10-13T01:23:55;16.90;99.90
23719;DHT22;43322;52.230;5.702;2023-10-13T01:26:21;16.90;99.90
23719;DHT22;43322;52.230;5.702;2023-10-13T01:28:50;16.90;99.90
23719;DHT22;43322;52.230;5.702;2023-10-13T01:31:16;16.90;99.90
23719;DHT22;43322;52.230;5.702;2023-10-13T01:33:56;16.90;99.90
23719;DHT22;43322;52.230;5.702;2023-10-13T01:36:24;17.00;99.90
23719;DHT22;43322;52.230;5.702;2023-10-13T01:38:51;17.00;99.90
23719;DHT22;43322;52.230;5.702;2023-10-13T01:41:20;17.00;99.90
23719;DHT22;43322;52.230;5.702;2023-10-13T01:43:47;17.00;99.90
23719;DHT22;43322;52.230;5.702;2023-10-13T01:46:14;16.90;99.90
23719;DHT22;43322;52.230;5.702;2023-10-13T01:48:44;16.90;99.90
23719;DHT22;43322;52.230;5.702;2023-10-13T01:51:11;17.00;99.90
23719;DHT22;43322;52.230;5.702;2023-10-13T01:53:38;17.00;99.90
23719;DHT22;43322;52.230;5.702;2023-10-13T01:56:05;17.00;99.90
23719;DHT22;43322;52.230;5.702;2023-10-13T01:58:37;17.00;99.90
23719;DHT22;43322;52.230;5.702;2023-10-13T02:01:07;17.00;99.90
23719;DHT22;43322;52.230;5.702;2023-10-13T02:03:34;17.00;99.90
23719;DHT22;43322;52.230;5.702;2023-10-13T02:06:01;16.90;99.90
23719;DHT22;43322;52.230;5.702;2023-10-13T02:08:30;16.90;99.90
23719;DHT22;43322;52.230;5.702;2023-10-13T02:10:57;16.90;99.90
23719;DHT22;43322;52.230;5.702;2023-10-13T02:13:25;16.90;99.90
23719;DHT22;43322;52.230;5.702;2023-10-13T02:15:55;16.90;99.90
23719;DHT22;43322;52.230;5.702;2023-10-13T02:18:23;17.10;99.90
23719;DHT22;43322;52.230;5.702;2023-10-13T02:20:52;17.10;99.90
23719;DHT22;43322;52.230;5.702;2023-10-13T02:23:21;17.10;99.90
23719;DHT22;43322;52.230;5.702;2023-10-13T02:25:47;17.10;99.90
23719;DHT22;43322;52.230;5.702;2023-10-13T02:28:18;17.10;99.90
23719;DHT22;43322;52.230;5.702;2023-10-13T02:30:47;17.00;99.90
23719;DHT22;43322;52.230;5.702;2023-10-13T02:33:17;17.00;99.90
23719;DHT22;43322;52.230;5.702;2023-10-13T02:35:47;17.00;99.90
23719;DHT22;43322;52.230;5.702;2023-10-13T02:38:20;16.90;99.90
23719;DHT22;43322;52.230;5.702;2023-10-13T02:40:53;16.90;99.90
23719;DHT22;43322;52.230;5.702;2023-10-13T02:43:21;16.90;99.90
23719;DHT22;43322;52.230;5.702;2023-10-13T02:45:57;17.00;99.90
23719;DHT22;43322;52.230;5.702;2023-10-13T02:48:27;16.90;99.90
23719;DHT22;43322;52.230;5.702;2023-10-13T02:50:57;17.00;99.90
23719;DHT22;43322;52.230;5.702;2023-10-13T02:53:27;17.00;99.90
23719;DHT22;43322;52.230;5.702;2023-10-13T02:55:55;16.90;99.90
23719;DHT22;43322;52.230;5.702;2023-10-13T02:58:25;16.90;99.90
23719;DHT22;43322;52.230;5.702;2023-10-13T03:01:06;16.80;99.90
23719;DHT22;43322;52.230;5.702;2023-10-13T03:03:44;16.80;99.90
23719;DHT22;43322;52.230;5.702;2023-10-13T03:06:14;16.90;99.90
23719;DHT22;43322;52.230;5.702;2023-10-13T03:08:41;16.90;99.90
23719;DHT22;43322;52.230;5.702;2023-10-13T03:11:08;16.90;99.90
23719;DHT22;43322;52.230;5.702;2023-10-13T03:13:37;16.80;99.90
23719;DHT22;43322;52.230;5.702;2023-10-13T03:16:11;16.80;99.90
23719;DHT22;43322;52.230;5.702;2023-10-13T03:18:41;16.90;99.90
23719;DHT22;43322;52.230;5.702;2023-10-13T03:21:18;16.70;99.90
23719;DHT22;43322;52.230;5.702;2023-10-13T03:23:55;16.90;99.90
23719;DHT22;43322;52.230;5.702;2023-10-13T03:26:21;16.90;99.90
23719;DHT22;43322;52.230;5.702;2023-10-13T03:28:47;16.80;99.90
23719;DHT22;43322;52.230;5.702;2023-10-13T03:31:18;16.90;99.90
23719;DHT22;43322;52.230;5.702;2023-10-13T03:33:44;16.90;99.90
23719;DHT22;43322;52.230;5.702;2023-10-13T03:36:12;16.90;99.90
23719;DHT22;43322;52.230;5.702;2023-10-13T03:39:00;16.90;99.90
23719;DHT22;43322;52.230;5.702;2023-10-13T03:41:32;16.90;99.90
23719;DHT22;43322;52.230;5.702;2023-10-13T03:44:03;16.80;99.90
23719;DHT22;43322;52.230;5.702;2023-10-13T03:46:38;16.80;99.90
23719;DHT22;43322;52.230;5.702;2023-10-13T03:49:06;16.80;99.90
23719;DHT22;43322;52.230;5.702;2023-10-13T03:51:39;16.70;99.90
23719;DHT22;43322;52.230;5.702;2023-10-13T03:54:07;16.80;99.90
23719;DHT22;43322;52.230;5.702;2023-10-13T03:56:35;16.80;99.90
23719;DHT22;43322;52.230;5.702;2023-10-13T03:59:10;16.90;99.90
23719;DHT22;43322;52.230;5.702;2023-10-13T04:01:43;16.90;99.90
23719;DHT22;43322;52.230;5.702;2023-10-13T04:04:13;16.80;99.90
23719;DHT22;43322;52.230;5.702;2023-10-13T04:06:41;16.80;99.90
23719;DHT22;43322;52.230;5.702;2023-10-13T04:09:40;16.90;99.90
23719;DHT22;43322;52.230;5.702;2023-10-13T04:12:24;16.80;99.90
23719;DHT22;43322;52.230;5.702;2023-10-13T04:15:09;16.90;99.90
23719;DHT22;43322;52.230;5.702;2023-10-13T04:17:50;16.80;99.90
23719;DHT22;43322;52.230;5.702;2023-10-13T04:20:17;16.80;99.90
23719;DHT22;43322;52.230;5.702;2023-10-13T04:23:03;16.80;99.90
23719;DHT22;43322;52.230;5.702;2023-10-13T04:25:45;16.80;99.90
23719;DHT22;43322;52.230;5.702;2023-10-13T04:28:29;16.80;99.90
23719;DHT22;43322;52.230;5.702;2023-10-13T04:31:03;16.80;99.90
23719;DHT22;43322;52.230;5.702;2023-10-13T04:33:49;16.80;99.90
23719;DHT22;43322;52.230;5.702;2023-10-13T04:36:21;16.80;99.90
23719;DHT22;43322;52.230;5.702;2023-10-13T04:39:02;16.80;99.90
23719;DHT22;43322;52.230;5.702;2023-10-13T04:41:37;16.80;99.90
23719;DHT22;43322;52.230;5.702;2023-10-13T04:44:05;16.80;99.90
23719;DHT22;43322;52.230;5.702;2023-10-13T04:46:46;16.80;99.90
23719;DHT22;43322;52.230;5.702;2023-10-13T04:49:37;16.80;99.90
23719;DHT22;43322;52.230;5.702;2023-10-13T04:52:15;16.90;99.90
23719;DHT22;43322;52.230;5.702;2023-10-13T04:55:05;16.90;99.90
23719;DHT22;43322;52.230;5.702;2023-10-13T04:57:53;16.80;99.90
23719;DHT22;43322;52.230;5.702;2023-10-13T05:00:36;16.70;99.90
23719;DHT22;43322;52.230;5.702;2023-10-13T05:03:20;16.60;99.90
23719;DHT22;43322;52.230;5.702;2023-10-13T05:06:06;16.70;99.90
23719;DHT22;43322;52.230;5.702;2023-10-13T05:08:52;16.70;99.90
23719;DHT22;43322;52.230;5.702;2023-10-13T05:11:36;16.80;99.90
23719;DHT22;43322;52.230;5.702;2023-10-13T05:14:22;16.80;99.90
23719;DHT22;43322;52.230;5.702;2023-10-13T05:17:06;16.70;99.90
23719;DHT22;43322;52.230;5.702;2023-10-13T05:19:50;16.80;99.90
23719;DHT22;43322;52.230;5.702;2023-10-13T05:22:30;16.80;99.90
23719;DHT22;43322;52.230;5.702;2023-10-13T05:25:15;16.80;99.90
23719;DHT22;43322;52.230;5.702;2023-10-13T05:27:59;16.90;99.90
23719;DHT22;43322;52.230;5.702;2023-10-13T05:30:44;16.90;99.90
23719;DHT22;43322;52.230;5.702;2023-10-13T05:33:28;16.90;99.90
23719;DHT22;43322;52.230;5.702;2023-10-13T05:36:12;16.90;99.90
23719;DHT22;43322;52.230;5.702;2023-10-13T05:38:56;17.00;99.90
23719;DHT22;43322;52.230;5.702;2023-10-13T05:41:52;17.00;99.90
23719;DHT22;43322;52.230;5.702;2023-10-13T05:44:36;17.10;99.90
23719;DHT22;43322;52.230;5.702;2023-10-13T05:47:22;17.20;99.90
23719;DHT22;43322;52.230;5.702;2023-10-13T05:50:12;17.20;99.90
23719;DHT22;43322;52.230;5.702;2023-10-13T05:52:54;17.30;99.90
23719;DHT22;43322;52.230;5.702;2023-10-13T05:55:38;17.30;99.90
23719;DHT22;43322;52.230;5.702;2023-10-13T05:58:22;17.20;99.90
23719;DHT22;43322;52.230;5.702;2023-10-13T06:01:12;17.30;99.90
23719;DHT22;43322;52.230;5.702;2023-10-13T06:03:57;17.30;99.90
23719;DHT22;43322;52.230;5.702;2023-10-13T06:06:41;17.30;99.90
23719;DHT22;43322;52.230;5.702;2023-10-13T06:09:25;17.20;99.90
23719;DHT22;43322;52.230;5.702;2023-10-13T06:12:10;17.20;99.90
23719;DHT22;43322;52.230;5.702;2023-10-13T06:14:54;17.10;99.90
23719;DHT22;43322;52.230;5.702;2023-10-13T06:17:38;17.10;99.90
23719;DHT22;43322;52.230;5.702;2023-10-13T06:20:23;17.10;99.90
23719;DHT22;43322;52.230;5.702;2023-10-13T06:23:08;17.10;99.90
23719;DHT22;43322;52.230;5.702;2023-10-13T06:25:52;17.20;99.90
23719;DHT22;43322;52.230;5.702;2023-10-13T06:28:37;17.20;99.90
23719;DHT22;43322;52.230;5.702;2023-10-13T06:31:12;17.20;99.90
23719;DHT22;43322;52.230;5.702;2023-10-13T06:33:46;17.10;99.90
23719;DHT22;43322;52.230;5.702;2023-10-13T06:36:14;17.10;99.90
23719;DHT22;43322;52.230;5.702;2023-10-13T06:38:43;17.10;99.90
23719;DHT22;43322;52.230;5.702;2023-10-13T06:41:10;17.10;99.90
23719;DHT22;43322;52.230;5.702;2023-10-13T06:43:45;17.00;99.90
23719;DHT22;43322;52.230;5.702;2023-10-13T06:46:25;17.10;99.90
23719;DHT22;43322;52.230;5.702;2023-10-13T06:48:54;17.00;99.90
23719;DHT22;43322;52.230;5.702;2023-10-13T06:51:22;17.00;99.90
23719;DHT22;43322;52.230;5.702;2023-10-13T06:53:51;17.00;99.90
23719;DHT22;43322;52.230;5.702;2023-10-13T06:56:22;17.10;99.90
23719;DHT22;43322;52.230;5.702;2023-10-13T06:58:52;17.10;99.90
23719;DHT22;43322;52.230;5.702;2023-10-13T07:01:25;17.20;99.90
23719;DHT22;43322;52.230;5.702;2023-10-13T07:03:51;17.30;99.90
23719;DHT22;43322;52.230;5.702;2023-10-13T07:06:19;17.30;99.90
23719;DHT22;43322;52.230;5.702;2023-10-13T07:08:47;17.30;99.90
23719;DHT22;43322;52.230;5.702;2023-10-13T07:11:17;17.30;99.90
23719;DHT22;43322;52.230;5.702;2023-10-13T07:13:58;17.30;99.90
23719;DHT22;43322;52.230;5.702;2023-10-13T07:16:26;17.40;99.90
23719;DHT22;43322;52.230;5.702;2023-10-13T07:19:00;17.40;99.90
23719;DHT22;43322;52.230;5.702;2023-10-13T07:21:31;17.40;99.90
23719;DHT22;43322;52.230;5.702;2023-10-13T07:23:59;17.50;99.90
23719;DHT22;43322;52.230;5.702;2023-10-13T07:26:36;17.60;99.90
23719;DHT22;43322;52.230;5.702;2023-10-13T07:29:08;17.60;99.90
23719;DHT22;43322;52.230;5.702;2023-10-13T07:31:35;17.60;99.90
23719;DHT22;43322;52.230;5.702;2023-10-13T07:34:03;17.60;99.90
23719;DHT22;43322;52.230;5.702;2023-10-13T07:36:38;17.70;99.90
23719;DHT22;43322;52.230;5.702;2023-10-13T07:39:07;17.70;99.90
23719;DHT22;43322;52.230;5.702;2023-10-13T07:41:46;17.70;99.90
23719;DHT22;43322;52.230;5.702;2023-10-13T07:44:17;17.70;99.90
23719;DHT22;43322;52.230;5.702;2023-10-13T07:46:45;17.70;99.90
23719;DHT22;43322;52.230;5.702;2023-10-13T07:49:23;17.80;99.90
23719;DHT22;43322;52.230;5.702;2023-10-13T07:51:50;17.90;99.90
23719;DHT22;43322;52.230;5.702;2023-10-13T07:54:23;17.90;99.90
23719;DHT22;43322;52.230;5.702;2023-10-13T07:56:50;18.00;99.90
23719;DHT22;43322;52.230;5.702;2023-10-13T07:59:18;18.00;99.90
23719;DHT22;43322;52.230;5.702;2023-10-13T08:01:48;17.90;99.90
23719;DHT22;43322;52.230;5.702;2023-10-13T08:04:34;17.90;99.90
23719;DHT22;43322;52.230;5.702;2023-10-13T08:07:02;18.00;99.90
23719;DHT22;43322;52.230;5.702;2023-10-13T08:09:39;18.00;99.90
23719;DHT22;43322;52.230;5.702;2023-10-13T08:12:07;18.00;99.90
23719;DHT22;43322;52.230;5.702;2023-10-13T08:14:37;18.00;99.90
23719;DHT22;43322;52.230;5.702;2023-10-13T08:17:06;18.10;99.90
23719;DHT22;43322;52.230;5.702;2023-10-13T08:19:36;18.20;99.90
23719;DHT22;43322;52.230;5.702;2023-10-13T08:22:11;18.10;99.90
23719;DHT22;43322;52.230;5.702;2023-10-13T08:24:51;18.20;99.90
23719;DHT22;43322;52.230;5.702;2023-10-13T08:27:38;18.30;99.90
23719;DHT22;43322;52.230;5.702;2023-10-13T08:30:16;18.30;99.90
23719;DHT22;43322;52.230;5.702;2023-10-13T08:32:55;18.30;99.90
23719;DHT22;43322;52.230;5.702;2023-10-13T08:35:22;18.30;99.90
23719;DHT22;43322;52.230;5.702;2023-10-13T08:37:59;18.30;99.90
23719;DHT22;43322;52.230;5.702;2023-10-13T08:40:31;18.40;99.90
23719;DHT22;43322;52.230;5.702;2023-10-13T08:43:32;18.40;99.90
23719;DHT22;43322;52.230;5.702;2023-10-13T08:46:09;18.40;99.90
23719;DHT22;43322;52.230;5.702;2023-10-13T08:48:52;18.40;99.90
23719;DHT22;43322;52.230;5.702;2023-10-13T08:51:35;18.50;99.90
23719;DHT22;43322;52.230;5.702;2023-10-13T08:54:14;18.50;99.90
23719;DHT22;43322;52.230;5.702;2023-10-13T08:57:02;18.40;99.90
23719;DHT22;43322;52.230;5.702;2023-10-13T08:59:59;18.50;99.90
23719;DHT22;43322;52.230;5.702;2023-10-13T09:02:46;18.50;99.90
23719;DHT22;43322;52.230;5.702;2023-10-13T09:05:43;18.50;99.90
23719;DHT22;43322;52.230;5.702;2023-10-13T09:08:26;18.40;99.90
23719;DHT22;43322;52.230;5.702;2023-10-13T09:11:00;18.50;99.90
23719;DHT22;43322;52.230;5.702;2023-10-13T09:13:38;18.50;99.90
23719;DHT22;43322;52.230;5.702;2023-10-13T09:16:10;18.40;99.90
23719;DHT22;43322;52.230;5.702;2023-10-13T09:18:43;18.50;99.90
23719;DHT22;43322;52.230;5.702;2023-10-13T09:21:12;18.40;99.90
23719;DHT22;43322;52.230;5.702;2023-10-13T09:23:56;18.50;99.90
23719;DHT22;43322;52.230;5.702;2023-10-13T09:26:37;18.50;99.90
23719;DHT22;43322;52.230;5.702;2023-10-13T09:29:15;18.40;99.90
23719;DHT22;43322;52.230;5.702;2023-10-13T09:31:44;18.40;99.90
23719;DHT22;43322;52.230;5.702;2023-10-13T09:34:19;18.50;99.90
23719;DHT22;43322;52.230;5.702;2023-10-13T09:36:47;18.50;99.90
23719;DHT22;43322;52.230;5.702;2023-10-13T09:39:23;18.50;99.90
23719;DHT22;43322;52.230;5.702;2023-10-13T09:41:55;18.50;99.90
23719;DHT22;43322;52.230;5.702;2023-10-13T09:44:26;18.60;99.90
23719;DHT22;43322;52.230;5.702;2023-10-13T09:46:59;18.60;99.90
23719;DHT22;43322;52.230;5.702;2023-10-13T09:49:39;18.60;99.90
23719;DHT22;43322;52.230;5.702;2023-10-13T09:52:13;18.60;99.90
23719;DHT22;43322;52.230;5.702;2023-10-13T09:55:00;18.70;99.90
23719;DHT22;43322;52.230;5.702;2023-10-13T09:57:36;18.60;99.90
23719;DHT22;43322;52.230;5.702;2023-10-13T10:00:11;18.70;99.90
23719;DHT22;43322;52.230;5.702;2023-10-13T10:03:06;18.80;99.90
23719;DHT22;43322;52.230;5.702;2023-10-13T10:05:41;18.80;99.90
23719;DHT22;43322;52.230;5.702;2023-10-13T10:08:23;18.80;99.90
23719;DHT22;43322;52.230;5.702;2023-10-13T10:14:06;18.70;99.90
23719;DHT22;43322;52.230;5.702;2023-10-13T10:16:43;18.70;99.90
23719;DHT22;43322;52.230;5.702;2023-10-13T10:19:15;18.70;99.90
23719;DHT22;43322;52.230;5.702;2023-10-13T10:21:43;18.70;99.90
23719;DHT22;43322;52.230;5.702;2023-10-13T10:24:14;18.70;99.90
23719;DHT22;43322;52.230;5.702;2023-10-13T10:26:52;18.80;99.90
23719;DHT22;43322;52.230;5.702;2023-10-13T10:29:19;18.80;99.90
23719;DHT22;43322;52.230;5.702;2023-10-13T10:31:46;18.80;99.90
23719;DHT22;43322;52.230;5.702;2023-10-13T10:34:13;18.80;99.90
23719;DHT22;43322;52.230;5.702;2023-10-13T10:36:46;18.90;99.90
23719;DHT22;43322;52.230;5.702;2023-10-13T10:39:13;19.20;99.90
23719;DHT22;43322;52.230;5.702;2023-10-13T10:41:41;19.00;99.90
23719;DHT22;43322;52.230;5.702;2023-10-13T10:44:17;19.10;99.90
23719;DHT22;43322;52.230;5.702;2023-10-13T10:46:48;19.20;99.90
23719;DHT22;43322;52.230;5.702;2023-10-13T10:49:25;19.40;99.90
23719;DHT22;43322;52.230;5.702;2023-10-13T10:51:58;19.50;99.90
23719;DHT22;43322;52.230;5.702;2023-10-13T10:54:29;19.60;99.90
23719;DHT22;43322;52.230;5.702;2023-10-13T10:56:57;19.70;99.90
23719;DHT22;43322;52.230;5.702;2023-10-13T10:59:36;19.70;99.90
23719;DHT22;43322;52.230;5.702;2023-10-13T11:02:04;19.70;99.90
23719;DHT22;43322;52.230;5.702;2023-10-13T11:04:32;19.70;99.90
23719;DHT22;43322;52.230;5.702;2023-10-13T11:07:01;19.70;99.90
23719;DHT22;43322;52.230;5.702;2023-10-13T11:09:29;19.80;99.90
23719;DHT22;43322;52.230;5.702;2023-10-13T11:12:10;19.80;99.90
23719;DHT22;43322;52.230;5.702;2023-10-13T11:14:41;19.80;99.90
23719;DHT22;43322;52.230;5.702;2023-10-13T11:17:08;19.80;99.90
23719;DHT22;43322;52.230;5.702;2023-10-13T11:19:44;19.90;99.90
23719;DHT22;43322;52.230;5.702;2023-10-13T11:22:13;19.90;99.90
23719;DHT22;43322;52.230;5.702;2023-10-13T11:24:55;19.90;99.90
23719;DHT22;43322;52.230;5.702;2023-10-13T11:27:28;19.90;99.90
23719;DHT22;43322;52.230;5.702;2023-10-13T11:30:10;19.90;99.90
23719;DHT22;43322;52.230;5.702;2023-10-13T11:32:40;19.90;99.90
23719;DHT22;43322;52.230;5.702;2023-10-13T11:35:07;19.90;99.90
23719;DHT22;43322;52.230;5.702;2023-10-13T11:37:38;19.90;99.90
23719;DHT22;43322;52.230;5.702;2023-10-13T11:40:09;19.80;99.90
23719;DHT22;43322;52.230;5.702;2023-10-13T11:42:38;19.90;99.90
23719;DHT22;43322;52.230;5.702;2023-10-13T11:45:09;19.90;99.90
23719;DHT22;43322;52.230;5.702;2023-10-13T11:47:54;19.90;99.90
23719;DHT22;43322;52.230;5.702;2023-10-13T11:50:25;19.90;99.90
23719;DHT22;43322;52.230;5.702;2023-10-13T11:52:59;20.00;99.90
23719;DHT22;43322;52.230;5.702;2023-10-13T11:55:26;20.00;99.90
23719;DHT22;43322;52.230;5.702;2023-10-13T11:57:53;20.00;99.90
23719;DHT22;43322;52.230;5.702;2023-10-13T12:00:20;20.00;99.90
23719;DHT22;43322;52.230;5.702;2023-10-13T12:03:12;20.00;99.90
23719;DHT22;43322;52.230;5.702;2023-10-13T12:05:56;20.00;99.90
23719;DHT22;43322;52.230;5.702;2023-10-13T12:08:44;20.10;99.90
23719;DHT22;43322;52.230;5.702;2023-10-13T12:11:17;20.10;99.90
23719;DHT22;43322;52.230;5.702;2023-10-13T12:14:04;20.20;99.90
23719;DHT22;43322;52.230;5.702;2023-10-13T12:16:42;20.30;99.90
23719;DHT22;43322;52.230;5.702;2023-10-13T12:19:14;20.30;99.90
23719;DHT22;43322;52.230;5.702;2023-10-13T12:21:42;20.30;99.90
23719;DHT22;43322;52.230;5.702;2023-10-13T12:24:11;20.30;99.90
23719;DHT22;43322;52.230;5.702;2023-10-13T12:26:48;20.20;99.90
23719;DHT22;43322;52.230;5.702;2023-10-13T12:29:22;20.60;99.90
23719;DHT22;43322;52.230;5.702;2023-10-13T12:31:53;20.20;99.90
23719;DHT22;43322;52.230;5.702;2023-10-13T12:34:34;20.20;99.90
23719;DHT22;43322;52.230;5.702;2023-10-13T12:37:23;20.10;99.90
23719;DHT22;43322;52.230;5.702;2023-10-13T12:40:17;20.20;99.90
23719;DHT22;43322;52.230;5.702;2023-10-13T12:43:02;20.30;99.90
23719;DHT22;43322;52.230;5.702;2023-10-13T12:45:48;20.40;99.90
23719;DHT22;43322;52.230;5.702;2023-10-13T12:48:33;20.40;99.90
23719;DHT22;43322;52.230;5.702;2023-10-13T12:51:18;20.40;99.90
23719;DHT22;43322;52.230;5.702;2023-10-13T12:54:05;20.40;99.90
23719;DHT22;43322;52.230;5.702;2023-10-13T12:56:40;20.40;99.90
23719;DHT22;43322;52.230;5.702;2023-10-13T12:59:08;20.30;99.90
23719;DHT22;43322;52.230;5.702;2023-10-13T13:01:39;20.40;99.90
23719;DHT22;43322;52.230;5.702;2023-10-13T13:04:07;20.30;99.90
23719;DHT22;43322;52.230;5.702;2023-10-13T13:06:37;20.30;99.90
23719;DHT22;43322;52.230;5.702;2023-10-13T13:09:05;20.20;99.90
23719;DHT22;43322;52.230;5.702;2023-10-13T13:11:34;20.20;99.90
23719;DHT22;43322;52.230;5.702;2023-10-13T13:14:06;20.20;99.90
23719;DHT22;43322;52.230;5.702;2023-10-13T13:16:34;20.20;99.90
23719;DHT22;43322;52.230;5.702;2023-10-13T13:19:01;20.10;99.90
23719;DHT22;43322;52.230;5.702;2023-10-13T13:21:35;20.00;99.90
23719;DHT22;43322;52.230;5.702;2023-10-13T13:24:02;20.00;99.90
23719;DHT22;43322;52.230;5.702;2023-10-13T13:26:30;19.90;99.90
23719;DHT22;43322;52.230;5.702;2023-10-13T13:28:57;19.90;99.90
23719;DHT22;43322;52.230;5.702;2023-10-13T13:31:26;19.90;99.90
23719;DHT22;43322;52.230;5.702;2023-10-13T13:33:54;19.70;99.90
23719;DHT22;43322;52.230;5.702;2023-10-13T13:36:21;19.70;99.90
23719;DHT22;43322;52.230;5.702;2023-10-13T13:38:48;19.60;99.90
23719;DHT22;43322;52.230;5.702;2023-10-13T13:41:17;19.60;99.90
23719;DHT22;43322;52.230;5.702;2023-10-13T13:43:44;19.40;99.90
23719;DHT22;43322;52.230;5.702;2023-10-13T13:46:27;19.40;99.90
23719;DHT22;43322;52.230;5.702;2023-10-13T13:48:58;19.30;99.90
23719;DHT22;43322;52.230;5.702;2023-10-13T13:51:26;19.30;99.90
23719;DHT22;43322;52.230;5.702;2023-10-13T13:53:54;19.20;99.90
23719;DHT22;43322;52.230;5.702;2023-10-13T13:56:21;19.20;99.90
23719;DHT22;43322;52.230;5.702;2023-10-13T13:58:51;19.10;99.90
23719;DHT22;43322;52.230;5.702;2023-10-13T14:01:19;19.00;99.90
23719;DHT22;43322;52.230;5.702;2023-10-13T14:03:49;19.30;99.90
23719;DHT22;43322;52.230;5.702;2023-10-13T14:06:17;18.90;99.90
23719;DHT22;43322;52.230;5.702;2023-10-13T14:08:47;18.80;99.90
23719;DHT22;43322;52.230;5.702;2023-10-13T14:11:16;18.80;99.90
23719;DHT22;43322;52.230;5.702;2023-10-13T14:14:10;18.80;99.90
23719;DHT22;43322;52.230;5.702;2023-10-13T14:16:54;18.80;99.90
23719;DHT22;43322;52.230;5.702;2023-10-13T14:19:29;18.70;99.90
23719;DHT22;43322;52.230;5.702;2023-10-13T14:21:56;18.70;99.90
23719;DHT22;43322;52.230;5.702;2023-10-13T14:24:23;18.70;99.90
23719;DHT22;43322;52.230;5.702;2023-10-13T14:26:53;18.60;99.90
23719;DHT22;43322;52.230;5.702;2023-10-13T14:29:20;18.60;99.90
23719;DHT22;43322;52.230;5.702;2023-10-13T14:31:46;18.50;99.90
23719;DHT22;43322;52.230;5.702;2023-10-13T14:34:14;18.40;99.90
23719;DHT22;43322;52.230;5.702;2023-10-13T14:36:42;18.30;99.90
23719;DHT22;43322;52.230;5.702;2023-10-13T14:39:14;18.30;99.90
23719;DHT22;43322;52.230;5.702;2023-10-13T14:41:41;18.40;99.90
23719;DHT22;43322;52.230;5.702;2023-10-13T14:44:07;18.20;99.90
23719;DHT22;43322;52.230;5.702;2023-10-13T14:46:34;18.20;99.90
23719;DHT22;43322;52.230;5.702;2023-10-13T14:49:04;18.20;99.90
23719;DHT22;43322;52.230;5.702;2023-10-13T14:51:31;18.10;99.90
23719;DHT22;43322;52.230;5.702;2023-10-13T14:53:59;18.10;99.90
23719;DHT22;43322;52.230;5.702;2023-10-13T14:56:26;18.10;99.90
23719;DHT22;43322;52.230;5.702;2023-10-13T14:58:54;18.20;99.90
23719;DHT22;43322;52.230;5.702;2023-10-13T15:01:22;18.20;99.90
23719;DHT22;43322;52.230;5.702;2023-10-13T15:03:51;18.20;99.90
23719;DHT22;43322;52.230;5.702;2023-10-13T15:06:22;18.20;99.90
23719;DHT22;43322;52.230;5.702;2023-10-13T15:08:51;18.20;99.90
23719;DHT22;43322;52.230;5.702;2023-10-13T15:11:21;18.20;99.90
23719;DHT22;43322;52.230;5.702;2023-10-13T15:13:52;18.10;99.90
23719;DHT22;43322;52.230;5.702;2023-10-13T15:16:20;18.00;99.90
23719;DHT22;43322;52.230;5.702;2023-10-13T15:18:49;18.10;99.90
23719;DHT22;43322;52.230;5.702;2023-10-13T15:21:19;18.10;99.90
23719;DHT22;43322;52.230;5.702;2023-10-13T15:23:47;18.10;99.90
23719;DHT22;43322;52.230;5.702;2023-10-13T15:26:13;18.10;99.90
23719;DHT22;43322;52.230;5.702;2023-10-13T15:28:41;18.10;99.90
23719;DHT22;43322;52.230;5.702;2023-10-13T15:31:14;18.10;99.90
23719;DHT22;43322;52.230;5.702;2023-10-13T15:33:52;18.10;99.90
23719;DHT22;43322;52.230;5.702;2023-10-13T15:36:20;18.00;99.90
23719;DHT22;43322;52.230;5.702;2023-10-13T15:38:48;18.00;99.90
23719;DHT22;43322;52.230;5.702;2023-10-13T15:41:21;18.00;99.90
23719;DHT22;43322;52.230;5.702;2023-10-13T15:43:49;18.00;99.90
23719;DHT22;43322;52.230;5.702;2023-10-13T15:46:18;18.00;99.90
23719;DHT22;43322;52.230;5.702;2023-10-13T15:48:46;18.10;99.90
23719;DHT22;43322;52.230;5.702;2023-10-13T15:51:13;18.00;99.90
23719;DHT22;43322;52.230;5.702;2023-10-13T15:53:40;18.10;99.90
23719;DHT22;43322;52.230;5.702;2023-10-13T15:56:08;18.00;99.90
23719;DHT22;43322;52.230;5.702;2023-10-13T15:58:38;18.00;99.90
23719;DHT22;43322;52.230;5.702;2023-10-13T16:01:06;18.00;99.90
23719;DHT22;43322;52.230;5.702;2023-10-13T16:03:34;18.00;99.90
23719;DHT22;43322;52.230;5.702;2023-10-13T16:06:02;17.90;99.90
23719;DHT22;43322;52.230;5.702;2023-10-13T16:08:35;17.90;99.90
23719;DHT22;43322;52.230;5.702;2023-10-13T16:11:06;17.90;99.90
23719;DHT22;43322;52.230;5.702;2023-10-13T16:13:34;17.90;99.90